createdAt,value
2019-03-25T00:01:48.059Z,34.10
2019-03-25T00:04:16.946Z,36.67
2019-03-25T00:06:46.139Z,36.07
2019-03-25T00:09:15.108Z,36.83
2019-03-25T00:11:44.004Z,33.80
2019-03-25T00:14:13.005Z,36.47
2019-03-25T00:16:41.965Z,35.20
2019-03-25T00:19:10.994Z,35.83
2019-03-25T00:21:39.906Z,34.93
2019-03-25T00:24:08.800Z,34.77
2019-03-25T00:26:37.699Z,35.57
2019-03-25T00:29:06.633Z,37.33
2019-03-25T00:31:35.525Z,35.03
2019-03-25T00:34:04.416Z,36.23
2019-03-25T00:36:33.324Z,36.17
2019-03-25T00:39:02.214Z,37.23
2019-03-25T00:41:32.728Z,36.53
2019-03-25T00:44:01.666Z,33.93
2019-03-25T00:46:30.561Z,34.37
2019-03-25T00:48:59.524Z,34.00
2019-03-25T00:51:28.440Z,34.37
2019-03-25T00:53:57.333Z,34.87
2019-03-25T00:56:27.431Z,36.60
2019-03-25T00:58:56.397Z,36.47
2019-03-25T01:01:25.292Z,36.17
2019-03-25T01:03:54.244Z,35.07
2019-03-25T01:06:23.139Z,34.80
2019-03-25T01:08:52.040Z,34.90
2019-03-25T01:11:20.961Z,34.80
2019-03-25T01:13:49.859Z,35.17
2019-03-25T01:16:18.792Z,36.30
2019-03-25T01:18:47.680Z,36.70
2019-03-25T01:21:16.589Z,37.10
2019-03-25T01:23:45.499Z,35.60
2019-03-25T01:26:14.407Z,36.33
2019-03-25T01:28:43.454Z,35.17
2019-03-25T01:31:12.396Z,34.60
2019-03-25T01:33:41.290Z,34.40
2019-03-25T01:36:10.180Z,36.43
2019-03-25T01:38:39.110Z,35.20
2019-03-25T01:41:08.011Z,35.17
2019-03-25T01:43:36.901Z,36.27
2019-03-25T01:46:05.820Z,35.50
2019-03-25T01:48:34.720Z,34.53
2019-03-25T01:51:03.615Z,34.90
2019-03-25T01:53:32.530Z,35.20
2019-03-25T01:56:01.433Z,36.27
2019-03-25T01:58:30.334Z,34.63
2019-03-25T02:00:59.259Z,36.67
2019-03-25T02:03:28.152Z,36.43
2019-03-25T02:05:57.059Z,35.93
2019-03-25T02:08:25.975Z,33.93
2019-03-25T02:10:54.873Z,35.90
2019-03-25T02:13:23.777Z,34.03
2019-03-25T02:15:52.727Z,37.00
2019-03-25T02:18:21.624Z,37.17
2019-03-25T02:20:50.520Z,36.17
2019-03-25T02:23:19.449Z,35.23
2019-03-25T02:25:48.349Z,37.03
2019-03-25T02:28:17.244Z,34.47
2019-03-25T02:30:46.177Z,37.03
2019-03-25T02:33:15.069Z,35.13
2019-03-25T02:35:43.976Z,34.90
2019-03-25T02:38:12.898Z,37.53
2019-03-25T02:40:41.787Z,36.10
2019-03-25T02:43:11.749Z,36.87
2019-03-25T02:45:40.728Z,35.50
2019-03-25T02:48:09.620Z,36.83
2019-03-25T02:50:38.524Z,38.13
2019-03-25T02:53:07.466Z,37.47
2019-03-25T02:55:41.917Z,38.50
2019-03-25T02:58:07.024Z,37.97
2019-03-25T03:00:36.572Z,34.47
2019-03-25T03:03:06.138Z,36.60
2019-03-25T03:05:35.409Z,38.03
2019-03-25T03:08:04.380Z,35.97
2019-03-25T03:10:33.395Z,38.70
2019-03-25T03:13:02.432Z,35.13
2019-03-25T03:15:31.484Z,36.53
2019-03-25T03:18:00.377Z,40.50
2019-03-25T03:20:29.391Z,36.93
2019-03-25T03:22:58.283Z,38.10
2019-03-25T03:25:27.213Z,37.67
2019-03-25T03:27:56.143Z,36.70
2019-03-25T03:30:25.031Z,34.60
2019-03-25T03:32:54.143Z,38.83
2019-03-25T03:35:23.208Z,35.33
2019-03-25T03:37:52.113Z,38.43
2019-03-25T03:40:21.016Z,36.20
2019-03-25T03:42:49.941Z,35.50
2019-03-25T03:45:18.998Z,36.07
2019-03-25T03:47:47.892Z,41.53
2019-03-25T03:50:21.282Z,38.73
2019-03-25T03:52:50.236Z,35.10
2019-03-25T03:55:19.240Z,36.13
2019-03-25T03:57:48.308Z,38.57
2019-03-25T04:00:24.750Z,37.57
2019-03-25T04:02:53.648Z,36.23
2019-03-25T04:05:22.883Z,35.53
2019-03-25T04:07:51.823Z,38.83
2019-03-25T04:10:21.786Z,36.17
2019-03-25T04:12:50.695Z,37.57
2019-03-25T04:15:26.878Z,40.00
2019-03-25T04:17:56.076Z,39.80
2019-03-25T04:20:24.966Z,40.23
2019-03-25T04:22:53.862Z,43.40
2019-03-25T04:25:22.801Z,44.23
2019-03-25T04:27:51.716Z,42.43
2019-03-25T04:30:20.607Z,44.17
2019-03-25T04:32:49.533Z,45.03
2019-03-25T04:35:18.432Z,41.27
2019-03-25T04:37:47.332Z,39.70
2019-03-25T04:40:16.405Z,38.83
2019-03-25T04:42:45.309Z,38.53
2019-03-25T04:45:14.381Z,39.00
2019-03-25T04:47:43.416Z,39.00
2019-03-25T04:50:12.689Z,39.40
2019-03-25T04:52:41.583Z,39.43
2019-03-25T04:55:10.564Z,41.77
2019-03-25T04:57:39.462Z,40.40
2019-03-25T05:00:08.638Z,39.17
2019-03-25T05:02:37.636Z,36.93
2019-03-25T05:05:07.601Z,40.23
2019-03-25T05:07:37.558Z,40.43
2019-03-25T05:10:06.636Z,40.77
2019-03-25T05:12:35.564Z,41.33
2019-03-25T05:15:05.636Z,40.23
2019-03-25T05:17:34.523Z,42.23
2019-03-25T05:20:04.024Z,43.50
2019-03-25T05:22:32.980Z,43.60
2019-03-25T05:25:01.874Z,42.53
2019-03-25T05:27:31.773Z,45.47
2019-03-25T05:30:00.659Z,43.53
2019-03-25T05:32:29.561Z,43.43
2019-03-25T05:34:58.470Z,44.57
2019-03-25T05:37:27.363Z,45.83
2019-03-25T05:39:56.303Z,47.90
2019-03-25T05:42:25.198Z,42.23
2019-03-25T05:44:54.109Z,42.47
2019-03-25T05:47:23.036Z,44.93
2019-03-25T05:49:51.990Z,46.23
2019-03-25T05:52:20.893Z,44.40
2019-03-25T05:54:49.898Z,44.77
2019-03-25T05:57:18.873Z,45.63
2019-03-25T05:59:47.767Z,44.37
2019-03-25T06:02:16.712Z,44.30
2019-03-25T06:04:45.637Z,44.27
2019-03-25T06:07:14.532Z,44.07
2019-03-25T06:09:43.467Z,41.60
2019-03-25T06:12:12.427Z,44.13
2019-03-25T06:14:41.408Z,45.07
2019-03-25T06:17:10.509Z,42.20
2019-03-25T06:19:40.487Z,43.77
2019-03-25T06:22:09.390Z,44.23
2019-03-25T06:24:38.317Z,42.33
2019-03-25T06:27:13.994Z,41.93
2019-03-25T06:29:38.042Z,41.23
2019-03-25T06:32:06.934Z,42.87
2019-03-25T06:34:36.040Z,43.13
2019-03-25T06:37:05.052Z,42.73
2019-03-25T06:39:33.953Z,42.93
2019-03-25T06:42:02.851Z,40.87
2019-03-25T06:44:31.788Z,41.37
2019-03-25T06:47:00.765Z,40.00
2019-03-25T06:49:29.773Z,39.20
2019-03-25T06:51:58.767Z,38.67
2019-03-25T06:54:27.673Z,38.77
2019-03-25T06:56:56.653Z,38.03
2019-03-25T06:59:25.640Z,39.73
2019-03-25T07:01:54.532Z,39.70
2019-03-25T07:04:23.533Z,34.30
2019-03-25T07:06:52.725Z,30.40
2019-03-25T07:09:21.621Z,28.93
2019-03-25T07:11:50.612Z,27.87
2019-03-25T07:14:19.617Z,27.93
2019-03-25T07:16:48.528Z,23.80
2019-03-25T07:19:17.417Z,26.07
2019-03-25T07:21:46.373Z,21.07
2019-03-25T07:24:15.343Z,22.20
2019-03-25T07:26:44.255Z,17.60
2019-03-25T07:29:13.190Z,15.57
2019-03-25T07:31:42.143Z,13.67
2019-03-25T07:34:11.040Z,13.10
2019-03-25T07:36:40.057Z,12.63
2019-03-25T07:39:09.000Z,11.80
2019-03-25T07:41:38.006Z,11.70
2019-03-25T07:44:08.690Z,11.70
2019-03-25T07:46:37.552Z,12.13
2019-03-25T07:49:06.537Z,11.43
2019-03-25T07:51:35.476Z,11.17
2019-03-25T07:54:04.360Z,11.13
2019-03-25T07:56:33.322Z,10.43
2019-03-25T07:59:02.401Z,9.43
2019-03-25T08:01:31.376Z,8.97
2019-03-25T08:04:00.277Z,11.97
2019-03-25T08:06:29.519Z,10.50
2019-03-25T08:09:03.681Z,8.70
2019-03-25T08:11:29.058Z,9.83
2019-03-25T08:13:58.329Z,8.87
2019-03-25T08:16:27.431Z,8.73
2019-03-25T08:18:57.511Z,9.77
2019-03-25T08:21:26.508Z,11.27
2019-03-25T08:23:55.413Z,11.53
2019-03-25T08:26:24.311Z,12.13
2019-03-25T08:28:53.382Z,12.10
2019-03-25T08:31:22.277Z,11.47
2019-03-25T08:33:52.245Z,10.50
2019-03-25T08:36:21.158Z,9.77
2019-03-25T08:38:50.172Z,10.95
2019-03-25T08:41:19.070Z,10.47
2019-03-25T08:43:50.302Z,9.23
2019-03-25T08:46:18.752Z,9.53
2019-03-25T08:48:47.689Z,8.33
2019-03-25T08:51:16.787Z,8.80
2019-03-25T08:53:45.702Z,7.47
2019-03-25T08:56:14.585Z,6.10
2019-03-25T08:58:43.507Z,6.93
2019-03-25T09:01:12.415Z,6.47
2019-03-25T09:03:41.406Z,7.33
2019-03-25T09:06:10.325Z,6.20
2019-03-25T09:08:39.257Z,6.97
2019-03-25T09:11:09.225Z,6.27
2019-03-25T09:13:38.429Z,6.57
2019-03-25T09:16:07.352Z,6.73
2019-03-25T09:18:36.388Z,5.67
2019-03-25T09:21:05.398Z,6.13
2019-03-25T09:23:34.300Z,5.90
2019-03-25T09:26:03.450Z,6.70
2019-03-25T09:28:32.453Z,6.50
2019-03-25T09:31:02.906Z,6.07
2019-03-25T09:33:31.824Z,7.07
2019-03-25T09:36:00.870Z,5.60
2019-03-25T09:38:29.857Z,6.20
2019-03-25T09:40:58.817Z,5.60
2019-03-25T09:43:28.725Z,5.60
2019-03-25T09:45:57.627Z,4.97
2019-03-25T09:48:26.601Z,5.27
2019-03-25T09:50:55.556Z,4.70
2019-03-25T09:53:24.452Z,5.53
2019-03-25T09:55:53.370Z,4.93
2019-03-25T09:58:22.268Z,4.70
2019-03-25T10:00:52.257Z,4.87
2019-03-25T10:03:21.343Z,4.63
2019-03-25T10:05:50.340Z,4.90
2019-03-25T10:08:21.787Z,5.43
2019-03-25T10:10:51.700Z,5.23
2019-03-25T10:13:20.592Z,5.47
2019-03-25T10:15:49.552Z,4.73
2019-03-25T10:18:18.460Z,5.17
2019-03-25T10:20:47.378Z,5.70
2019-03-25T10:23:16.277Z,5.03
2019-03-25T10:25:45.250Z,5.23
2019-03-25T10:28:14.175Z,5.70
2019-03-25T10:30:43.078Z,5.37
2019-03-25T10:33:12.037Z,4.97
2019-03-25T10:35:40.945Z,5.80
2019-03-25T10:38:19.189Z,4.50
2019-03-25T10:40:40.428Z,4.90
2019-03-25T10:43:09.436Z,4.90
2019-03-25T10:45:39.466Z,4.97
2019-03-25T10:48:08.433Z,4.93
2019-03-25T10:50:37.422Z,5.43
2019-03-25T10:53:06.506Z,4.43
2019-03-25T10:55:35.496Z,4.77
2019-03-25T10:58:04.586Z,4.93
2019-03-25T11:00:33.574Z,5.30
2019-03-25T11:03:02.465Z,5.37
2019-03-25T11:05:31.455Z,5.73
2019-03-25T11:08:01.394Z,5.67
2019-03-25T11:10:31.932Z,5.40
2019-03-25T11:13:00.929Z,4.67
2019-03-25T11:15:29.811Z,4.53
2019-03-25T11:17:58.801Z,5.40
2019-03-25T11:20:27.692Z,4.77
2019-03-25T11:22:56.587Z,4.50
2019-03-25T11:25:26.566Z,3.70
2019-03-25T11:27:55.487Z,4.17
2019-03-25T11:30:42.585Z,3.97
2019-03-25T11:33:11.504Z,4.03
2019-03-25T11:35:40.497Z,4.03
2019-03-25T11:38:09.493Z,3.37
2019-03-25T11:40:38.450Z,4.10
2019-03-25T11:43:07.342Z,3.80
2019-03-25T11:45:36.256Z,2.73
2019-03-25T11:48:05.156Z,1.70
2019-03-25T11:50:34.111Z,1.97
2019-03-25T11:53:03.193Z,2.13
2019-03-25T11:55:32.080Z,1.80
2019-03-25T11:58:01.121Z,1.97
2019-03-25T12:00:30.218Z,1.67
2019-03-25T12:02:59.199Z,1.87
2019-03-25T12:05:28.113Z,1.67
2019-03-25T12:07:57.098Z,1.77
2019-03-25T12:10:26.007Z,1.80
2019-03-25T12:12:54.977Z,1.77
2019-03-25T12:15:23.957Z,1.80
2019-03-25T12:17:52.841Z,2.37
2019-03-25T12:20:21.753Z,1.77
2019-03-25T12:22:50.660Z,1.80
2019-03-25T12:25:19.551Z,1.77
2019-03-25T12:27:48.479Z,2.10
2019-03-25T12:30:17.600Z,1.80
2019-03-25T12:32:46.559Z,1.50
2019-03-25T12:35:15.567Z,1.70
2019-03-25T12:37:44.452Z,1.97
2019-03-25T12:40:13.496Z,1.73
2019-03-25T12:42:42.796Z,1.73
2019-03-25T12:45:11.983Z,1.57
2019-03-25T12:47:41.013Z,1.80
2019-03-25T12:50:09.989Z,1.50
2019-03-25T12:52:38.908Z,1.70
2019-03-25T12:55:07.876Z,1.30
2019-03-25T12:57:36.822Z,1.37
2019-03-25T13:00:06.417Z,1.40
2019-03-25T13:02:35.313Z,1.60
2019-03-25T13:05:05.541Z,1.40
2019-03-25T13:07:35.577Z,1.17
2019-03-25T13:10:05.684Z,1.20
2019-03-25T13:12:34.690Z,1.30
2019-03-25T13:15:05.113Z,1.50
2019-03-25T13:17:34.002Z,1.20
2019-03-25T13:20:03.495Z,1.07
2019-03-25T13:22:32.459Z,1.43
2019-03-25T13:25:01.339Z,1.20
2019-03-25T13:27:30.412Z,1.60
2019-03-25T13:30:00.405Z,1.10
2019-03-25T13:32:29.393Z,1.20
2019-03-25T13:34:58.281Z,1.20
2019-03-25T13:37:27.208Z,1.30
2019-03-25T13:39:56.153Z,1.63
2019-03-25T13:42:25.046Z,1.30
2019-03-25T13:44:57.418Z,1.67
2019-03-25T13:47:24.536Z,1.73
2019-03-25T13:49:53.895Z,1.57
2019-03-25T13:52:24.459Z,1.10
2019-03-25T13:54:53.339Z,1.40
2019-03-25T13:57:22.242Z,1.67
2019-03-25T13:59:51.147Z,1.27
2019-03-25T14:02:20.032Z,1.70
2019-03-25T14:04:48.928Z,1.60
2019-03-25T14:07:17.841Z,1.73
2019-03-25T14:09:46.826Z,1.83
2019-03-25T14:12:15.736Z,1.80
2019-03-25T14:14:44.676Z,1.10
2019-03-25T14:17:13.642Z,1.30
2019-03-25T14:19:42.539Z,1.47
2019-03-25T14:22:11.453Z,1.40
2019-03-25T14:24:40.392Z,1.63
2019-03-25T14:27:09.272Z,1.95
2019-03-25T14:29:38.194Z,2.03
2019-03-25T14:32:07.136Z,1.90
2019-03-25T14:34:44.428Z,1.53
2019-03-25T14:37:06.672Z,1.60
2019-03-25T14:39:35.550Z,2.20
2019-03-25T14:42:04.582Z,1.80
2019-03-25T14:44:33.501Z,1.33
2019-03-25T14:47:02.451Z,1.37
2019-03-25T14:49:31.406Z,1.43
2019-03-25T14:52:00.357Z,1.67
2019-03-25T14:54:29.241Z,1.53
2019-03-25T14:57:00.015Z,1.40
2019-03-25T14:59:28.975Z,1.63
2019-03-25T15:01:57.857Z,1.50
2019-03-25T15:04:27.876Z,1.47
2019-03-25T15:06:56.863Z,1.40
2019-03-25T15:09:25.755Z,1.83
2019-03-25T15:11:54.642Z,1.40
2019-03-25T15:14:23.542Z,1.57
2019-03-25T15:16:52.432Z,1.97
2019-03-25T15:19:21.421Z,1.67
2019-03-25T15:21:50.351Z,1.73
2019-03-25T15:24:19.242Z,1.73
2019-03-25T15:26:48.128Z,1.53
2019-03-25T15:29:17.195Z,1.40
2019-03-25T15:31:46.164Z,1.70
2019-03-25T15:34:15.049Z,1.50
2019-03-25T15:36:43.976Z,1.50
2019-03-25T15:39:12.865Z,2.10
2019-03-25T15:41:41.763Z,2.03
2019-03-25T15:44:10.680Z,2.00
2019-03-25T15:46:39.570Z,1.67
2019-03-25T15:49:09.504Z,1.90
2019-03-25T15:51:38.443Z,2.00
2019-03-25T15:54:07.329Z,1.83
2019-03-25T15:56:36.213Z,1.87
2019-03-25T15:59:05.206Z,2.27
2019-03-25T16:01:34.089Z,2.10
2019-03-25T16:04:02.973Z,1.67
2019-03-25T16:06:31.899Z,1.70
2019-03-25T16:09:00.791Z,1.90
2019-03-25T16:11:29.848Z,1.90
2019-03-25T16:13:58.787Z,2.00
2019-03-25T16:16:27.688Z,1.50
2019-03-25T16:18:56.573Z,1.97
2019-03-25T16:21:25.586Z,1.67
2019-03-25T16:23:54.547Z,1.90
2019-03-25T16:26:23.441Z,2.20
2019-03-25T16:28:52.361Z,1.83
2019-03-25T16:31:21.243Z,2.10
2019-03-25T16:33:50.156Z,1.70
2019-03-25T16:36:19.133Z,2.27
2019-03-25T16:38:48.022Z,2.20
2019-03-25T16:41:16.917Z,2.20
2019-03-25T16:43:45.828Z,2.23
2019-03-25T16:46:14.718Z,2.13
2019-03-25T16:48:43.603Z,1.77
2019-03-25T16:51:12.527Z,1.70
2019-03-25T16:54:00.756Z,1.93
2019-03-25T16:56:29.705Z,2.33
2019-03-25T16:58:58.734Z,2.00
2019-03-25T17:01:27.635Z,2.00
2019-03-25T17:03:56.569Z,2.07
2019-03-25T17:06:25.449Z,1.83
2019-03-25T17:08:54.353Z,2.00
2019-03-25T17:11:23.363Z,1.87
2019-03-25T17:13:52.320Z,1.97
2019-03-25T17:16:21.272Z,1.90
2019-03-25T17:18:50.333Z,2.10
2019-03-25T17:21:19.293Z,2.10
2019-03-25T17:23:48.626Z,2.17
2019-03-25T17:26:17.527Z,1.57
2019-03-25T17:28:46.411Z,1.97
2019-03-25T17:31:20.865Z,2.20
2019-03-25T17:33:45.916Z,1.63
2019-03-25T17:36:14.807Z,2.00
2019-03-25T17:38:43.729Z,2.03
2019-03-25T17:41:12.616Z,1.53
2019-03-25T17:43:42.655Z,1.63
2019-03-25T17:46:11.582Z,2.40
2019-03-25T17:48:40.469Z,2.33
2019-03-25T17:51:09.427Z,1.83
2019-03-25T17:53:38.402Z,1.87
2019-03-25T17:56:08.361Z,1.37
2019-03-25T17:58:37.345Z,1.60
2019-03-25T18:01:08.149Z,1.50
2019-03-25T18:03:37.192Z,1.70
2019-03-25T18:06:06.087Z,1.90
2019-03-25T18:08:35.072Z,2.07
2019-03-25T18:11:04.041Z,2.13
2019-03-25T18:13:34.000Z,1.90
2019-03-25T18:16:03.019Z,2.10
2019-03-25T18:18:33.034Z,2.07
2019-03-25T18:21:01.932Z,1.57
2019-03-25T18:23:30.933Z,1.60
2019-03-25T18:25:59.824Z,1.40
2019-03-25T18:28:28.816Z,1.30
2019-03-25T18:30:57.889Z,1.47
2019-03-25T18:33:26.779Z,2.10
2019-03-25T18:35:55.706Z,1.60
2019-03-25T18:38:24.624Z,2.00
2019-03-25T18:40:53.526Z,1.80
2019-03-25T18:43:22.485Z,1.53
2019-03-25T18:45:52.546Z,2.00
2019-03-25T18:48:21.441Z,2.00
2019-03-25T18:50:50.468Z,1.70
2019-03-25T18:53:19.486Z,1.97
2019-03-25T18:55:48.395Z,2.00
2019-03-25T18:58:17.349Z,1.90
2019-03-25T19:00:46.374Z,1.70
2019-03-25T19:03:15.509Z,1.67
2019-03-25T19:05:44.726Z,1.50
2019-03-25T19:08:13.716Z,1.63
2019-03-25T19:10:42.621Z,1.80
2019-03-25T19:13:11.538Z,1.67
2019-03-25T19:15:40.537Z,1.90
2019-03-25T19:18:09.726Z,1.53
2019-03-25T19:20:38.620Z,1.97
2019-03-25T19:23:07.597Z,1.67
2019-03-25T19:25:36.486Z,1.53
2019-03-25T19:28:05.526Z,1.70
2019-03-25T19:30:34.481Z,1.47
2019-03-25T19:33:03.442Z,1.63
2019-03-25T19:35:32.362Z,2.23
2019-03-25T19:38:01.326Z,2.10
2019-03-25T19:40:30.229Z,2.20
2019-03-25T19:42:59.182Z,1.93
2019-03-25T19:45:28.094Z,2.00
2019-03-25T19:47:56.994Z,2.10
2019-03-25T19:50:25.916Z,1.87
2019-03-25T19:52:54.897Z,2.03
2019-03-25T19:55:23.840Z,2.00
2019-03-25T19:57:52.850Z,2.43
2019-03-25T20:00:23.262Z,2.10
2019-03-25T20:02:52.274Z,2.30
2019-03-25T20:05:21.331Z,2.50
2019-03-25T20:07:50.351Z,2.13
2019-03-25T20:10:23.813Z,2.43
2019-03-25T20:12:52.904Z,2.07
2019-03-25T20:15:22.013Z,2.17
2019-03-25T20:17:51.072Z,2.60
2019-03-25T20:20:20.009Z,2.50
2019-03-25T20:22:48.957Z,3.07
2019-03-25T20:25:18.182Z,3.37
2019-03-25T20:27:47.212Z,3.93
2019-03-25T20:30:16.439Z,3.70
2019-03-25T20:32:45.588Z,3.50
2019-03-25T20:35:14.545Z,3.43
2019-03-25T20:37:43.604Z,3.00
2019-03-25T20:40:12.695Z,3.10
2019-03-25T20:42:41.662Z,3.63
2019-03-25T20:45:10.736Z,3.37
2019-03-25T20:47:39.847Z,3.33
2019-03-25T20:50:09.032Z,3.10
2019-03-25T20:52:38.106Z,3.40
2019-03-25T20:55:07.418Z,3.17
2019-03-25T20:57:40.441Z,3.33
2019-03-25T21:00:08.761Z,3.00
2019-03-25T21:02:44.952Z,3.37
2019-03-25T21:05:10.207Z,3.10
2019-03-25T21:07:39.259Z,3.40
2019-03-25T21:10:08.492Z,3.10
2019-03-25T21:12:38.795Z,2.60
2019-03-25T21:15:08.223Z,2.80
2019-03-25T21:17:37.223Z,2.77
2019-03-25T21:20:07.447Z,2.47
2019-03-25T21:22:36.407Z,2.80
2019-03-25T21:25:06.396Z,2.67
2019-03-25T21:27:35.366Z,2.77
2019-03-25T21:30:05.929Z,2.93
2019-03-25T21:35:15.083Z,2.70
2019-03-25T21:37:44.039Z,2.60
2019-03-25T21:40:13.015Z,2.70
2019-03-25T21:42:41.962Z,2.67
2019-03-25T21:45:11.178Z,2.60
2019-03-25T21:47:40.104Z,2.67
2019-03-25T21:50:09.246Z,2.73
2019-03-25T21:52:38.386Z,2.63
2019-03-25T21:55:07.647Z,2.80
2019-03-25T21:57:36.596Z,2.40
2019-03-25T22:00:07.408Z,2.60
2019-03-25T22:02:36.403Z,2.50
2019-03-25T22:05:08.104Z,2.43
2019-03-25T22:07:37.118Z,2.53
2019-03-25T22:10:06.438Z,3.13
2019-03-25T22:12:35.399Z,3.23
2019-03-25T22:15:09.259Z,3.10
2019-03-25T22:17:38.523Z,2.90
2019-03-25T22:20:08.783Z,3.40
2019-03-25T22:22:37.847Z,3.10
2019-03-25T22:25:07.319Z,2.30
2019-03-25T22:27:36.352Z,2.70
2019-03-25T22:30:06.337Z,3.40
2019-03-25T22:32:35.352Z,2.87
2019-03-25T22:35:07.193Z,3.37
2019-03-25T22:37:36.156Z,3.43
2019-03-25T22:40:06.020Z,3.27
2019-03-25T22:42:34.941Z,4.03
2019-03-25T22:45:04.507Z,3.50
2019-03-25T22:47:33.702Z,3.30
2019-03-25T22:50:02.951Z,3.40
2019-03-25T22:52:31.847Z,3.20
2019-03-25T22:55:00.757Z,3.20
2019-03-25T22:57:29.671Z,3.40
2019-03-25T22:59:58.558Z,2.70
2019-03-25T23:02:27.453Z,2.67
2019-03-25T23:04:56.377Z,3.30
2019-03-25T23:07:25.291Z,3.00
2019-03-25T23:09:54.264Z,2.50
2019-03-25T23:12:23.144Z,3.50
2019-03-25T23:14:52.058Z,2.70
2019-03-25T23:17:21.017Z,3.60
2019-03-25T23:19:49.994Z,3.03
2019-03-25T23:22:18.933Z,2.90
2019-03-25T23:24:47.821Z,2.60
2019-03-25T23:27:16.706Z,2.53
2019-03-25T23:29:45.822Z,2.47
2019-03-25T23:32:14.769Z,3.10
2019-03-25T23:34:43.814Z,2.93
2019-03-25T23:37:12.726Z,2.50
2019-03-25T23:39:41.690Z,2.90
2019-03-25T23:42:12.193Z,2.47
2019-03-25T23:44:41.229Z,2.70
2019-03-25T23:47:10.103Z,2.50
2019-03-25T23:49:38.989Z,3.40
2019-03-25T23:52:07.924Z,2.30
2019-03-25T23:54:36.886Z,2.40
2019-03-25T23:57:06.954Z,2.93
2019-03-25T23:59:35.901Z,2.90
